Time;durP1;ratioP1;P1;durP2;ratioP2;P2;SDS_P1;SDS_P2;PMS_P1;PMS_P2;Temp;Humidity;BMP_temperature;BMP_pressure;BME280_temperature;BME280_humidity;BME280_pressure;Samples;Min_cycle;Max_cycle;Signal;HPM_P1;HPM_P2
2021/12/05 00:17:38;;;;;;;4.90;3.70;;;3.70;99.90;;;;;;4979893;28;20900;-68
2021/12/05 00:20:37;;;;;;;9.83;4.20;;;3.70;99.90;;;;;;4986312;28;20835;-69
2021/12/05 00:23:09;;;;;;;10.93;4.20;;;3.70;99.90;;;;;;4994540;28;20478;-69
2021/12/05 00:25:38;;;;;;;8.00;3.43;;;3.70;99.90;;;;;;4994576;28;20529;-71
2021/12/05 00:28:31;;;;;;;3.93;3.20;;;3.70;99.90;;;;;;4975593;28;20822;-69
2021/12/05 00:45:38;;;;;;;9.10;4.20;;;3.50;99.90;;;;;;5047367;28;20447;-85
2021/12/05 00:48:40;;;;;;;6.17;3.10;;;3.50;99.90;;;;;;5038889;28;20475;-85
2021/12/05 00:59:40;;;;;;;4.90;2.90;;;3.50;99.90;;;;;;5034543;28;21050;-85
2021/12/05 01:02:19;;;;;;;5.63;3.00;;;3.50;99.90;;;;;;5045543;28;20492;-85
2021/12/05 01:05:08;;;;;;;13.63;3.63;;;3.70;99.90;;;;;;5054844;28;20460;-86
2021/12/05 01:07:53;;;;;;;3.97;2.77;;;3.50;99.90;;;;;;5054742;28;20507;-85
2021/12/05 01:10:35;;;;;;;8.23;3.07;;;3.70;99.90;;;;;;5043020;28;20507;-85
2021/12/05 01:16:10;;;;;;;5.67;2.40;;;3.60;99.90;;;;;;5088025;28;20525;-74
2021/12/05 01:18:38;;;;;;;7.47;2.90;;;3.70;99.90;;;;;;5072845;28;20998;-74
2021/12/05 01:21:11;;;;;;;5.50;2.73;;;3.70;99.90;;;;;;5068133;28;20863;-74
2021/12/05 01:23:45;;;;;;;9.13;2.87;;;3.70;99.90;;;;;;5068441;28;20533;-74
2021/12/05 01:26:18;;;;;;;4.40;2.30;;;3.80;99.90;;;;;;5068058;28;20455;-74
2021/12/05 01:29:01;;;;;;;10.33;2.60;;;3.70;99.90;;;;;;5067507;28;20455;-74
2021/12/05 01:31:39;;;;;;;6.60;2.63;;;3.70;99.90;;;;;;5068606;28;20459;-74
2021/12/05 01:34:17;;;;;;;14.63;2.80;;;3.70;99.90;;;;;;5067744;28;20483;-74
2021/12/05 01:36:56;;;;;;;4.53;2.20;;;3.70;99.90;;;;;;5067719;28;20451;-74
2021/12/05 01:39:35;;;;;;;12.60;2.57;;;3.70;99.90;;;;;;5068350;28;20501;-74
2021/12/05 01:47:56;;;;;;;12.57;2.70;;;3.80;99.90;;;;;;5048587;28;20760;-74
2021/12/05 01:56:42;;;;;;;9.70;2.20;;;3.60;99.90;;;;;;5005489;28;20520;-74
2021/12/05 02:02:26;;;;;;;10.00;2.37;;;3.50;99.90;;;;;;5058054;28;20479;-74
2021/12/05 02:16:17;;;;;;;14.27;2.67;;;3.40;99.90;;;;;;5050819;28;20506;-74
2021/12/05 02:30:14;;;;;;;6.13;4.00;;;3.30;99.90;;;;;;4992592;28;20434;-76
2021/12/05 02:33:00;;;;;;;9.60;3.73;;;3.30;99.90;;;;;;5019800;28;20559;-75
2021/12/05 02:35:53;;;;;;;16.17;3.60;;;3.30;99.90;;;;;;5049881;28;20971;-75
2021/12/05 02:38:50;;;;;;;10.43;5.70;;;3.30;99.90;;;;;;5053557;28;20480;-75
2021/12/05 02:41:19;;;;;;;12.03;3.00;;;3.20;99.90;;;;;;5053337;28;20464;-75
2021/12/05 02:43:48;;;;;;;8.97;3.13;;;3.30;99.90;;;;;;5053120;28;20490;-75
2021/12/05 02:46:19;;;;;;;18.93;3.80;;;3.30;99.90;;;;;;5052787;28;20484;-75
2021/12/05 02:48:46;;;;;;;12.93;2.80;;;3.30;99.90;;;;;;5053481;28;20511;-75
2021/12/05 02:51:16;;;;;;;15.73;3.33;;;3.30;99.90;;;;;;5053080;28;20464;-75
2021/12/05 02:53:49;;;;;;;5.40;2.50;;;3.30;99.90;;;;;;5053100;28;20503;-75
2021/12/05 02:56:17;;;;;;;5.27;2.23;;;3.30;99.90;;;;;;5052966;28;20488;-75
2021/12/05 02:58:49;;;;;;;6.10;2.63;;;3.30;99.90;;;;;;5053251;28;20464;-75
2021/12/05 03:01:22;;;;;;;15.17;3.00;;;3.40;99.90;;;;;;5053201;28;20547;-75
2021/12/05 03:03:50;;;;;;;11.03;3.00;;;3.40;99.90;;;;;;5053200;28;20983;-75
2021/12/05 03:06:22;;;;;;;13.63;3.10;;;3.40;99.90;;;;;;5052698;28;20531;-75
2021/12/05 03:08:53;;;;;;;11.83;3.30;;;3.40;99.90;;;;;;5053370;28;20506;-75
2021/12/05 03:11:20;;;;;;;10.00;2.37;;;3.30;99.90;;;;;;5052520;28;20530;-75
2021/12/05 03:13:47;;;;;;;11.60;3.53;;;3.30;99.90;;;;;;5051583;28;20526;-75
2021/12/05 03:16:16;;;;;;;4.73;2.60;;;3.20;99.90;;;;;;5052508;28;20518;-75
2021/12/05 03:18:44;;;;;;;6.10;2.60;;;3.20;99.90;;;;;;5052671;28;20964;-75
2021/12/05 03:21:12;;;;;;;6.87;2.90;;;3.20;99.90;;;;;;5052870;28;20474;-75
2021/12/05 03:23:41;;;;;;;13.30;3.10;;;3.20;99.90;;;;;;5052478;28;20530;-75
2021/12/05 03:26:12;;;;;;;7.83;2.80;;;3.20;99.90;;;;;;5052860;28;20448;-75
2021/12/05 03:28:39;;;;;;;12.10;3.40;;;3.10;99.90;;;;;;5052134;28;20456;-74
2021/12/05 03:31:07;;;;;;;11.80;3.10;;;3.10;99.90;;;;;;5052378;28;20492;-75
2021/12/05 03:33:35;;;;;;;5.50;2.80;;;3.00;99.90;;;;;;5052534;28;21057;-75
2021/12/05 03:36:02;;;;;;;14.77;3.27;;;2.90;99.90;;;;;;5051636;28;20492;-75
2021/12/05 03:38:29;;;;;;;7.73;2.83;;;2.80;99.90;;;;;;5051709;28;20510;-75
2021/12/05 03:40:56;;;;;;;6.57;3.13;;;2.80;99.90;;;;;;5052460;28;20448;-74
2021/12/05 03:43:24;;;;;;;15.57;2.90;;;2.80;99.90;;;;;;5051581;28;20530;-74
2021/12/05 03:45:54;;;;;;;9.90;3.10;;;2.80;99.90;;;;;;5051575;28;21015;-76
2021/12/05 03:48:22;;;;;;;14.20;3.30;;;2.70;99.90;;;;;;5052592;28;20453;-74
2021/12/05 03:50:49;;;;;;;5.07;3.13;;;2.70;99.90;;;;;;5052191;28;20456;-75
2021/12/05 03:53:18;;;;;;;10.50;3.43;;;2.60;99.90;;;;;;5052285;28;20980;-75
2021/12/05 03:55:48;;;;;;;13.63;3.10;;;2.60;99.90;;;;;;5051606;28;20487;-74
2021/12/05 03:58:15;;;;;;;7.87;3.40;;;2.50;99.90;;;;;;5052294;28;20503;-75
2021/12/05 04:00:47;;;;;;;10.17;3.50;;;2.50;99.90;;;;;;5051693;28;20483;-75
2021/12/05 04:03:18;;;;;;;7.80;3.40;;;2.40;99.90;;;;;;5051860;28;20472;-74
2021/12/05 04:05:44;;;;;;;5.13;2.90;;;2.40;99.90;;;;;;5051779;28;20445;-75
2021/12/05 04:08:15;;;;;;;8.80;3.33;;;2.30;99.90;;;;;;5051895;28;20448;-75
2021/12/05 04:10:44;;;;;;;10.17;3.03;;;2.20;99.90;;;;;;5052241;28;20539;-75
2021/12/05 04:13:12;;;;;;;10.00;3.80;;;2.10;99.90;;;;;;5051656;28;20992;-75
2021/12/05 04:15:39;;;;;;;7.90;3.40;;;2.10;99.90;;;;;;5051542;28;20518;-75
2021/12/05 04:18:07;;;;;;;15.57;3.30;;;2.00;99.90;;;;;;5051717;28;20822;-75
2021/12/05 04:20:34;;;;;;;11.70;3.33;;;1.90;99.90;;;;;;5051469;28;20456;-75
2021/12/05 04:23:01;;;;;;;8.63;3.43;;;1.90;99.90;;;;;;5051306;28;20480;-75
2021/12/05 04:25:29;;;;;;;6.40;3.30;;;1.90;99.90;;;;;;5051515;28;20453;-75
2021/12/05 04:27:56;;;;;;;9.90;3.20;;;1.90;99.90;;;;;;5051540;28;20456;-75
2021/12/05 04:30:25;;;;;;;11.87;3.50;;;1.90;99.90;;;;;;5051261;28;20460;-75
2021/12/05 04:32:52;;;;;;;7.60;2.80;;;1.90;99.90;;;;;;5051705;28;20996;-75
2021/12/05 04:35:20;;;;;;;6.27;3.50;;;2.00;99.90;;;;;;5051147;28;20484;-75
2021/12/05 04:37:47;;;;;;;9.60;3.50;;;2.00;99.90;;;;;;5051569;28;20456;-75
2021/12/05 04:40:15;;;;;;;6.50;3.20;;;2.00;99.90;;;;;;5051066;28;20453;-75
2021/12/05 04:42:42;;;;;;;10.07;3.27;;;2.00;99.90;;;;;;5051505;28;20476;-75
2021/12/05 04:45:12;;;;;;;9.23;3.30;;;2.00;99.90;;;;;;5050193;28;20468;-75
2021/12/05 04:47:39;;;;;;;10.37;3.00;;;2.00;99.90;;;;;;5051495;28;20453;-75
2021/12/05 04:50:07;;;;;;;9.43;3.00;;;2.00;99.90;;;;;;5051139;28;20456;-75
2021/12/05 04:52:35;;;;;;;13.13;3.30;;;2.00;99.90;;;;;;5051465;28;20472;-75
2021/12/05 04:55:02;;;;;;;13.87;2.70;;;2.00;99.90;;;;;;5036768;28;20476;-75
2021/12/05 04:57:28;;;;;;;10.23;2.60;;;2.00;99.90;;;;;;5050849;28;20945;-75
2021/12/05 04:59:55;;;;;;;12.83;2.67;;;1.90;99.90;;;;;;5050151;28;20456;-75
2021/12/05 05:02:22;;;;;;;5.13;2.20;;;1.80;99.90;;;;;;5051091;28;20615;-75
2021/12/05 05:04:50;;;;;;;5.10;2.63;;;1.80;99.90;;;;;;5051316;28;20448;-75
2021/12/05 05:07:22;;;;;;;6.03;2.63;;;1.70;99.90;;;;;;5050780;28;20456;-75
2021/12/05 05:09:52;;;;;;;12.50;3.50;;;1.70;99.90;;;;;;5050957;28;20474;-75
2021/12/05 05:12:20;;;;;;;5.40;2.90;;;1.70;99.90;;;;;;5050449;28;20464;-75
2021/12/05 05:14:47;;;;;;;7.33;3.23;;;1.70;99.90;;;;;;5051038;28;20514;-75
2021/12/05 05:17:14;;;;;;;10.73;2.90;;;1.70;99.90;;;;;;5050481;28;20793;-76
2021/12/05 05:19:45;;;;;;;10.37;3.43;;;1.80;99.90;;;;;;5051253;28;20966;-76
2021/12/05 05:22:22;;;;;;;8.73;3.03;;;1.70;99.90;;;;;;5050217;28;20476;-75
2021/12/05 05:30:45;;;;;;;7.90;3.33;;;1.70;99.90;;;;;;5028772;28;20804;-75
2021/12/05 05:44:33;;;;;;;15.50;3.77;;;1.60;99.90;;;;;;5049379;28;20967;-75
2021/12/05 05:47:05;;;;;;;10.90;3.60;;;1.60;99.90;;;;;;5050393;28;20472;-76
2021/12/05 05:49:46;;;;;;;10.23;3.40;;;1.70;99.90;;;;;;5051046;28;20456;-76
2021/12/05 05:52:12;;;;;;;11.43;4.10;;;1.70;99.90;;;;;;5050640;28;20509;-76
2021/12/05 05:54:39;;;;;;;9.30;3.67;;;1.70;99.90;;;;;;5051052;28;20448;-75
2021/12/05 05:57:15;;;;;;;8.53;3.67;;;1.70;99.90;;;;;;5050722;28;20575;-75
2021/12/05 05:59:47;;;;;;;4.90;3.30;;;1.80;99.90;;;;;;5050357;28;20456;-76
2021/12/05 06:04:59;;;;;;;10.37;4.27;;;1.80;99.90;;;;;;5054909;28;20444;-76
2021/12/05 06:07:26;;;;;;;13.30;4.60;;;1.80;99.90;;;;;;5054514;28;21001;-74
2021/12/05 06:09:52;;;;;;;10.37;4.90;;;1.70;99.90;;;;;;5053874;28;20535;-74
2021/12/05 06:12:20;;;;;;;9.97;4.33;;;1.70;99.90;;;;;;5053671;28;20471;-74
2021/12/05 06:14:47;;;;;;;11.63;5.13;;;1.70;99.90;;;;;;5054059;28;20460;-74
2021/12/05 06:17:17;;;;;;;9.43;4.67;;;1.70;99.90;;;;;;5053346;28;20484;-74
2021/12/05 06:19:44;;;;;;;19.27;4.73;;;1.60;99.90;;;;;;5053881;28;20502;-74
2021/12/05 06:22:11;;;;;;;10.90;4.70;;;1.60;99.90;;;;;;5053805;28;20996;-76
2021/12/05 06:24:37;;;;;;;16.67;5.30;;;1.60;99.90;;;;;;5054633;28;20769;-74
2021/12/05 06:27:04;;;;;;;10.53;4.70;;;1.60;99.90;;;;;;5053673;28;20506;-74
2021/12/05 06:29:37;;;;;;;14.10;4.50;;;1.60;99.90;;;;;;5053225;28;20498;-74
2021/12/05 06:32:31;;;;;;;18.00;4.20;;;1.70;99.90;;;;;;5052772;28;20487;-75
2021/12/05 06:37:54;;;;;;;11.20;4.70;;;1.70;99.90;;;;;;5053843;28;20820;-75
2021/12/05 06:40:48;;;;;;;12.10;4.40;;;1.70;99.90;;;;;;5054098;28;20448;-75
2021/12/05 06:45:59;;;;;;;13.47;4.83;;;1.80;99.90;;;;;;5064677;22;20576;-72
2021/12/05 06:46:15;;;;;;;20.10;4.77;;;1.80;99.90;;;;;;5024083;28;20444;-71
2021/12/05 06:48:43;;;;;;;12.23;4.80;;;1.70;99.90;;;;;;5025112;28;20468;-72
2021/12/05 06:51:10;;;;;;;10.83;4.53;;;1.70;99.90;;;;;;5019841;28;20541;-72
2021/12/05 06:53:37;;;;;;;10.13;4.60;;;1.70;99.90;;;;;;5037551;28;20465;-72
2021/12/05 06:56:04;;;;;;;11.80;5.30;;;1.70;99.90;;;;;;5033353;28;20481;-72
2021/12/05 06:58:32;;;;;;;10.57;4.73;;;1.70;99.90;;;;;;5033003;28;20483;-71
2021/12/05 07:01:00;;;;;;;9.63;4.40;;;1.70;99.90;;;;;;5039522;28;20552;-71
2021/12/05 07:03:29;;;;;;;16.10;5.07;;;1.70;99.90;;;;;;5034706;28;20488;-71
2021/12/05 07:06:00;;;;;;;8.90;4.30;;;1.70;99.90;;;;;;5032838;28;21211;-71
2021/12/05 07:08:31;;;;;;;10.70;4.57;;;1.80;99.90;;;;;;5032865;28;20970;-71
2021/12/05 07:11:03;;;;;;;16.80;5.47;;;1.70;99.90;;;;;;5044270;28;20453;-71
2021/12/05 07:16:17;;;;;;;7.90;4.90;;;1.60;99.90;;;;;;5023714;28;20464;-71
2021/12/05 07:19:01;;;;;;;9.77;4.67;;;1.60;99.90;;;;;;5035632;28;20461;-71
2021/12/05 07:21:38;;;;;;;13.53;4.80;;;1.60;99.90;;;;;;5033043;28;20453;-71
2021/12/05 07:24:13;;;;;;;5.03;4.00;;;1.60;99.90;;;;;;5039446;28;20540;-71
2021/12/05 07:40:25;;;;;;;8.17;4.70;;;1.60;99.90;;;;;;5033374;28;21183;-71
2021/12/05 07:42:53;;;;;;;15.37;6.00;;;1.60;99.90;;;;;;5038779;28;20494;-70
2021/12/05 07:45:24;;;;;;;10.33;4.97;;;1.60;99.90;;;;;;5034199;28;20454;-70
2021/12/05 07:47:52;;;;;;;9.80;5.00;;;1.60;99.90;;;;;;5035488;28;20457;-70
2021/12/05 07:50:30;;;;;;;11.80;4.93;;;1.70;99.90;;;;;;5032529;28;20810;-70
2021/12/05 07:53:05;;;;;;;9.60;4.60;;;1.70;99.90;;;;;;5031957;28;20527;-70
2021/12/05 07:55:38;;;;;;;7.40;4.60;;;1.70;99.90;;;;;;5037175;28;20449;-70
2021/12/05 07:58:07;;;;;;;14.10;4.80;;;1.80;99.90;;;;;;5031858;28;21119;-69
2021/12/05 08:00:42;;;;;;;11.27;4.60;;;1.90;99.90;;;;;;5040896;28;20453;-70
2021/12/05 08:14:32;;;;;;;12.03;6.47;;;2.30;99.90;;;;;;5031741;28;20476;-70
2021/12/05 08:17:00;;;;;;;10.47;6.40;;;2.30;99.90;;;;;;5045134;28;20570;-70
2021/12/05 08:19:27;;;;;;;12.23;6.43;;;2.30;99.90;;;;;;5033095;28;20456;-69
2021/12/05 08:21:55;;;;;;;17.97;8.70;;;2.30;99.90;;;;;;5027381;28;20481;-69
2021/12/05 08:24:23;;;;;;;26.53;9.60;;;2.30;99.90;;;;;;5032225;28;20473;-70
2021/12/05 08:26:51;;;;;;;29.00;12.93;;;2.60;99.90;;;;;;5034996;28;20879;-70
2021/12/05 08:29:24;;;;;;;19.03;7.13;;;2.80;99.90;;;;;;5030293;28;20544;-70
2021/12/05 08:43:17;;;;;;;12.30;6.07;;;3.10;99.90;;;;;;4993107;28;20480;-70
2021/12/05 09:22:12;;;;;;;13.73;7.40;;;3.50;99.90;;;;;;5029931;28;20479;-70
2021/12/05 09:24:46;;;;;;;13.07;7.20;;;3.40;99.90;;;;;;5034594;28;20476;-70
2021/12/05 10:09:13;;;;;;;5.10;4.10;;;5.70;99.90;;;;;;5033738;28;20499;-69
2021/12/05 10:11:46;;;;;;;3.80;3.50;;;5.70;99.90;;;;;;5027930;28;20897;-70
2021/12/05 10:14:27;;;;;;;4.37;3.97;;;5.80;99.90;;;;;;5043509;28;20992;-69
2021/12/05 10:17:23;;;;;;;6.37;4.37;;;6.00;99.90;;;;;;5033035;28;20488;-69
2021/12/05 10:20:16;;;;;;;6.27;4.00;;;6.10;99.90;;;;;;5033237;28;20445;-69
2021/12/05 10:33:57;;;;;;;4.63;2.73;;;6.10;99.90;;;;;;5037764;28;20523;-69
2021/12/05 10:36:26;;;;;;;2.67;2.47;;;6.10;99.90;;;;;;5033256;28;20842;-72
2021/12/05 10:38:59;;;;;;;4.80;2.63;;;6.40;99.90;;;;;;5033226;28;21116;-72
2021/12/05 10:41:47;;;;;;;4.33;2.77;;;6.60;99.90;;;;;;5033339;28;21011;-72
2021/12/05 10:44:16;;;;;;;5.73;3.03;;;6.80;99.90;;;;;;5032276;28;20961;-72
2021/12/05 10:46:49;;;;;;;3.13;2.93;;;7.10;99.90;;;;;;5032476;28;20457;-72
2021/12/05 10:49:18;;;;;;;3.03;2.83;;;7.30;99.90;;;;;;5032455;28;20461;-72
2021/12/05 10:51:47;;;;;;;5.33;3.07;;;7.50;99.90;;;;;;5032097;28;20450;-72
2021/12/05 10:54:17;;;;;;;2.83;2.63;;;7.50;99.90;;;;;;5035882;28;20468;-72
2021/12/05 10:56:50;;;;;;;4.70;2.70;;;7.50;99.90;;;;;;5043627;28;20521;-71
2021/12/05 10:59:18;;;;;;;3.10;2.80;;;7.30;99.90;;;;;;5032384;28;20465;-72
2021/12/05 11:01:47;;;;;;;3.40;3.10;;;7.10;99.90;;;;;;5043182;28;20879;-72
2021/12/05 11:04:17;;;;;;;5.00;3.27;;;7.00;99.90;;;;;;5049520;28;20468;-72
2021/12/05 11:06:50;;;;;;;4.80;2.43;;;6.90;99.90;;;;;;5032351;28;20446;-73
2021/12/05 11:09:19;;;;;;;2.90;2.30;;;7.10;99.90;;;;;;5033544;28;20535;-73
2021/12/05 11:11:50;;;;;;;2.37;2.20;;;7.20;99.90;;;;;;5052894;28;20782;-72
2021/12/05 11:14:19;;;;;;;6.73;2.73;;;6.90;99.90;;;;;;5041573;28;20509;-71
2021/12/05 11:16:50;;;;;;;4.90;2.20;;;6.60;99.90;;;;;;5043947;28;20488;-71
2021/12/05 11:19:25;;;;;;;4.40;2.60;;;6.40;99.90;;;;;;5033735;28;20449;-71
2021/12/05 11:21:59;;;;;;;3.20;2.30;;;6.50;99.90;;;;;;5032535;28;20511;-71
2021/12/05 11:24:29;;;;;;;2.80;2.53;;;6.50;99.90;;;;;;5039225;28;21361;-71
2021/12/05 11:27:16;;;;;;;3.47;2.97;;;6.40;99.90;;;;;;5041120;28;20451;-71
2021/12/05 11:29:47;;;;;;;2.43;2.23;;;6.70;99.90;;;;;;5032196;28;20465;-71
2021/12/05 11:32:16;;;;;;;4.40;2.63;;;6.90;99.90;;;;;;5031892;28;20457;-71
2021/12/05 11:34:45;;;;;;;2.90;2.17;;;7.00;99.90;;;;;;5032122;28;20479;-72
2021/12/05 11:37:12;;;;;;;5.70;2.00;;;7.30;99.90;;;;;;5043095;28;20477;-71
2021/12/05 11:39:38;;;;;;;6.03;2.37;;;7.30;99.90;;;;;;5031765;28;20873;-71
2021/12/05 11:42:17;;;;;;;5.63;2.03;;;7.00;99.90;;;;;;5031779;28;20480;-70
2021/12/05 11:44:46;;;;;;;8.30;3.67;;;7.00;99.90;;;;;;5031987;28;20453;-71
2021/12/05 11:47:15;;;;;;;2.70;2.47;;;7.30;99.90;;;;;;5031728;28;20464;-71
2021/12/05 11:49:42;;;;;;;6.00;3.40;;;7.30;99.90;;;;;;5032040;28;20449;-72
2021/12/05 11:52:10;;;;;;;7.37;3.20;;;7.20;99.90;;;;;;5028540;28;21170;-72
2021/12/05 11:54:41;;;;;;;4.17;3.60;;;7.10;99.90;;;;;;5020535;28;20547;-69
2021/12/05 11:57:11;;;;;;;5.63;3.03;;;7.10;99.90;;;;;;5032046;28;20543;-69
2021/12/05 11:59:40;;;;;;;9.87;3.60;;;7.20;99.90;;;;;;5031525;28;20445;-69
2021/12/05 12:02:09;;;;;;;7.30;4.43;;;7.00;99.90;;;;;;5032192;28;20527;-69
2021/12/05 12:04:45;;;;;;;5.43;3.50;;;6.60;99.90;;;;;;5031781;28;20476;-68
2021/12/05 12:07:27;;;;;;;6.40;3.30;;;6.20;99.90;;;;;;5033961;28;20544;-68
2021/12/05 12:09:58;;;;;;;5.60;3.30;;;6.10;99.90;;;;;;5047332;28;20455;-68
2021/12/05 12:12:26;;;;;;;4.70;2.93;;;6.00;99.90;;;;;;5052295;28;20514;-68
2021/12/05 12:14:53;;;;;;;3.30;2.70;;;5.80;99.90;;;;;;5041745;28;20512;-69
2021/12/05 12:17:20;;;;;;;4.60;2.53;;;5.80;99.90;;;;;;5031663;28;20477;-69
2021/12/05 12:19:49;;;;;;;5.83;4.47;;;5.80;99.90;;;;;;5031683;28;20449;-69
2021/12/05 12:22:20;;;;;;;2.60;2.40;;;5.70;99.90;;;;;;5032128;28;20556;-69
2021/12/05 12:24:49;;;;;;;2.20;2.10;;;5.80;99.90;;;;;;5039781;28;20480;-69
2021/12/05 12:27:17;;;;;;;3.20;1.90;;;5.80;99.90;;;;;;5045478;28;20784;-68
2021/12/05 12:29:44;;;;;;;1.70;1.60;;;5.80;99.90;;;;;;5031893;28;20460;-69
2021/12/05 12:32:15;;;;;;;2.40;2.20;;;5.80;99.90;;;;;;5031993;28;20461;-69
2021/12/05 12:34:43;;;;;;;2.20;2.00;;;5.80;99.90;;;;;;5032019;28;20489;-68
2021/12/05 12:37:11;;;;;;;1.70;1.50;;;5.90;99.90;;;;;;5028408;28;20853;-70
2021/12/05 12:39:42;;;;;;;5.10;1.80;;;5.80;99.90;;;;;;5030615;28;20445;-70
2021/12/05 12:42:16;;;;;;;2.60;1.60;;;5.80;99.90;;;;;;5030690;28;20461;-69
2021/12/05 12:45:11;;;;;;;2.90;2.00;;;5.90;99.90;;;;;;5024900;22;20285;-87
2021/12/05 12:47:41;;;;;;;1.60;1.50;;;5.90;99.90;;;;;;5016112;28;20451;-87
2021/12/05 12:50:29;;;;;;;2.60;2.03;;;5.90;99.90;;;;;;5001120;28;20208;-87
2021/12/05 12:52:58;;;;;;;4.65;3.30;;;5.90;99.90;;;;;;5002482;28;20454;-88
2021/12/05 12:55:29;;;;;;;3.58;2.50;;;5.90;99.90;;;;;;5007773;28;20460;-87
2021/12/05 12:57:56;;;;;;;4.23;2.23;;;6.00;99.90;;;;;;4995801;28;20240;-83
2021/12/05 13:00:26;;;;;;;22.57;20.17;;;6.20;99.90;;;;;;4996115;28;20457;-83
2021/12/05 13:02:58;;;;;;;6.70;6.10;;;6.60;99.90;;;;;;5015693;28;20921;-85
2021/12/05 13:07:16;;;;;;;1.90;1.77;;;6.90;99.90;;;;;;5014451;28;20478;-86
2021/12/05 13:11:49;;;;;;;3.63;2.73;;;7.00;99.90;;;;;;5021650;28;20465;-85
2021/12/05 13:14:17;;;;;;;2.40;2.20;;;6.90;99.90;;;;;;5011020;28;20472;-85
2021/12/05 13:16:46;;;;;;;2.30;2.20;;;6.80;99.90;;;;;;5005386;28;20450;-85
2021/12/05 13:19:19;;;;;;;2.60;2.40;;;6.70;99.90;;;;;;5013189;28;20442;-86
2021/12/05 13:21:49;;;;;;;2.37;2.27;;;6.70;99.90;;;;;;5001214;28;20935;-86
2021/12/05 13:24:23;;;;;;;4.63;2.20;;;6.90;99.90;;;;;;5013498;28;20564;-85
2021/12/05 13:26:52;;;;;;;2.60;2.40;;;7.00;99.90;;;;;;5020684;28;20451;-85
2021/12/05 13:29:21;;;;;;;3.90;2.30;;;6.90;99.90;;;;;;5012946;28;20454;-85
2021/12/05 13:31:53;;;;;;;2.27;1.93;;;6.80;99.90;;;;;;5012942;28;20446;-85
2021/12/05 13:34:30;;;;;;;3.00;2.10;;;6.80;99.90;;;;;;5013034;28;20474;-85
2021/12/05 13:37:01;;;;;;;3.10;2.13;;;6.80;99.90;;;;;;5005144;28;20818;-85
2021/12/05 13:39:41;;;;;;;2.20;2.10;;;6.70;99.90;;;;;;5005615;28;20207;-86
2021/12/05 13:42:13;;;;;;;2.40;2.20;;;6.80;99.90;;;;;;5015681;28;20427;-84
2021/12/05 13:45:04;;;;;;;2.67;1.90;;;6.80;99.90;;;;;;5015207;28;20486;-86
2021/12/05 13:47:34;;;;;;;5.93;4.53;;;6.80;99.90;;;;;;5014075;28;20450;-84
2021/12/05 13:50:27;;;;;;;2.65;1.75;;;6.80;99.90;;;;;;4995212;28;20480;-84
2021/12/05 13:52:56;;;;;;;3.80;2.10;;;6.80;99.90;;;;;;4999074;28;20460;-86
2021/12/05 13:55:40;;;;;;;2.30;2.10;;;6.50;99.90;;;;;;4998259;28;20224;-84
2021/12/05 13:58:26;;;;;;;3.80;2.13;;;6.40;99.90;;;;;;5016250;28;20458;-85
2021/12/05 14:00:56;;;;;;;2.60;2.40;;;6.40;99.90;;;;;;5017735;28;20660;-85
2021/12/05 14:03:47;;;;;;;3.75;1.77;;;6.40;99.90;;;;;;5008683;28;20448;-84
2021/12/05 14:06:53;;;;;;;3.13;2.00;;;6.30;99.90;;;;;;5031082;23;20253;-74
2021/12/05 14:09:24;;;;;;;3.00;2.37;;;6.10;99.90;;;;;;5007696;28;20454;-74
2021/12/05 14:11:57;;;;;;;4.10;2.27;;;6.00;99.90;;;;;;5023613;28;20458;-73
2021/12/05 14:14:27;;;;;;;3.40;2.13;;;6.00;99.90;;;;;;4995061;28;20466;-74
2021/12/05 14:16:57;;;;;;;2.47;2.03;;;6.00;99.90;;;;;;5005610;28;20442;-72
2021/12/05 14:19:27;;;;;;;2.37;2.20;;;5.90;99.90;;;;;;4998351;28;20553;-72
2021/12/05 14:21:56;;;;;;;4.30;2.10;;;5.90;99.90;;;;;;4991601;28;20812;-72
2021/12/05 14:24:26;;;;;;;5.37;2.23;;;5.80;99.90;;;;;;5014026;28;20284;-72
2021/12/05 14:26:55;;;;;;;3.80;2.20;;;5.80;99.90;;;;;;5015676;28;20482;-72
2021/12/05 14:29:24;;;;;;;11.73;2.60;;;5.80;99.90;;;;;;4993579;28;20509;-74
2021/12/05 14:31:56;;;;;;;3.90;2.80;;;5.80;99.90;;;;;;5006850;28;20467;-74
2021/12/05 14:34:23;;;;;;;8.30;2.53;;;5.80;99.90;;;;;;4994499;28;20330;-73
2021/12/05 14:36:54;;;;;;;3.83;2.60;;;5.70;99.90;;;;;;4993238;28;20480;-74
2021/12/05 14:39:26;;;;;;;6.60;2.60;;;5.60;99.90;;;;;;5012610;28;20432;-74
2021/12/05 14:41:55;;;;;;;5.67;2.50;;;5.50;99.90;;;;;;5002969;28;20640;-74
2021/12/05 14:44:23;;;;;;;8.57;2.80;;;5.40;99.90;;;;;;5002439;28;20524;-73
2021/12/05 14:46:59;;;;;;;3.10;2.80;;;5.30;99.90;;;;;;5010080;28;20716;-77
2021/12/05 14:49:28;;;;;;;3.03;2.57;;;5.20;99.90;;;;;;5001604;28;20496;-73
2021/12/05 14:51:55;;;;;;;5.60;3.03;;;5.20;99.90;;;;;;5010951;28;20462;-75
2021/12/05 14:54:28;;;;;;;3.27;2.97;;;5.10;99.90;;;;;;5009221;28;20536;-74
2021/12/05 14:56:57;;;;;;;6.77;3.07;;;5.00;99.90;;;;;;5013066;28;20469;-74
2021/12/05 14:59:24;;;;;;;5.47;3.37;;;4.90;99.90;;;;;;5011467;28;20540;-75
2021/12/05 15:01:55;;;;;;;6.23;3.93;;;4.90;99.90;;;;;;4993327;28;20459;-74
2021/12/05 15:04:28;;;;;;;4.67;3.63;;;4.80;99.90;;;;;;4993168;28;20533;-74
2021/12/05 15:06:56;;;;;;;5.37;3.20;;;4.80;99.90;;;;;;5013154;28;20849;-75
2021/12/05 15:09:27;;;;;;;4.60;3.70;;;4.70;99.90;;;;;;5013298;28;20803;-76
2021/12/05 15:11:59;;;;;;;6.13;4.07;;;4.70;99.90;;;;;;5013347;28;20450;-75
2021/12/05 15:14:26;;;;;;;6.30;4.30;;;4.60;99.90;;;;;;5011956;28;21282;-75
2021/12/05 15:17:02;;;;;;;8.50;4.67;;;4.60;99.90;;;;;;5008087;28;20459;-75
2021/12/05 15:19:29;;;;;;;15.83;4.27;;;4.50;99.90;;;;;;4993613;28;20482;-77
2021/12/05 15:21:57;;;;;;;5.63;4.20;;;4.60;99.90;;;;;;4993653;28;20586;-77
2021/12/05 15:24:27;;;;;;;7.30;3.20;;;4.60;99.90;;;;;;4998479;28;20839;-76
2021/12/05 15:26:56;;;;;;;5.33;3.53;;;4.50;99.90;;;;;;5012105;28;21007;-77
2021/12/05 15:29:23;;;;;;;5.73;3.70;;;4.50;99.90;;;;;;5032858;28;20445;-76
2021/12/05 15:31:50;;;;;;;6.87;3.80;;;4.50;99.90;;;;;;4999202;28;20459;-77
2021/12/05 15:34:29;;;;;;;12.67;3.37;;;4.50;99.90;;;;;;4996312;28;20470;-77
2021/12/05 15:36:57;;;;;;;5.47;3.30;;;4.50;99.90;;;;;;5006865;28;20514;-77
2021/12/05 15:39:27;;;;;;;5.53;3.30;;;4.40;99.90;;;;;;5001239;28;20490;-77
2021/12/05 15:41:59;;;;;;;9.20;4.03;;;4.40;99.90;;;;;;5012170;28;20504;-77
2021/12/05 15:44:29;;;;;;;5.80;3.30;;;4.50;99.90;;;;;;5012606;28;20484;-78
2021/12/05 15:47:12;;;;;;;10.93;4.10;;;4.50;99.90;;;;;;5006883;28;21040;-78
2021/12/05 15:50:03;;;;;;;6.87;4.90;;;4.40;99.90;;;;;;5001297;28;20857;-77
2021/12/05 15:52:37;;;;;;;5.13;3.40;;;4.40;99.90;;;;;;5011523;28;20455;-77
2021/12/05 15:55:09;;;;;;;6.83;4.50;;;4.40;99.90;;;;;;5012674;28;20458;-78
2021/12/05 15:57:40;;;;;;;7.30;4.90;;;4.40;99.90;;;;;;4994657;28;20541;-78
2021/12/05 16:00:15;;;;;;;9.00;4.97;;;4.40;99.90;;;;;;5007217;28;20458;-78
2021/12/05 16:02:47;;;;;;;8.53;5.80;;;4.40;99.90;;;;;;5009305;28;20459;-78
2021/12/05 16:05:18;;;;;;;9.30;4.67;;;4.40;99.90;;;;;;4993310;28;20530;-78
2021/12/05 16:07:45;;;;;;;9.73;4.57;;;4.30;99.90;;;;;;4993704;28;20451;-78
2021/12/05 16:10:16;;;;;;;8.43;4.33;;;4.30;99.90;;;;;;5015775;28;20457;-77
2021/12/05 16:12:46;;;;;;;6.40;4.50;;;4.60;99.90;;;;;;5007733;28;20529;-77
2021/12/05 16:15:16;;;;;;;6.60;5.50;;;4.30;99.90;;;;;;4992604;28;20567;-77
2021/12/05 16:17:43;;;;;;;7.10;4.90;;;4.30;99.90;;;;;;5000131;28;20505;-77
2021/12/05 16:20:15;;;;;;;6.70;4.93;;;4.30;99.90;;;;;;5004224;28;20459;-77
2021/12/05 16:23:07;;;;;;;10.00;5.70;;;4.40;99.90;;;;;;5005214;28;21013;-77
2021/12/05 16:25:35;;;;;;;7.50;4.57;;;4.40;99.90;;;;;;5024117;28;20454;-77
2021/12/05 16:28:05;;;;;;;8.30;5.00;;;4.40;99.90;;;;;;5010550;28;20454;-78
2021/12/05 16:30:35;;;;;;;5.53;5.00;;;4.40;99.90;;;;;;5007395;28;20446;-75
2021/12/05 16:33:04;;;;;;;10.30;5.90;;;4.40;99.90;;;;;;5011572;28;20478;-77
2021/12/05 16:35:34;;;;;;;9.90;6.00;;;4.40;99.90;;;;;;5009485;28;20470;-77
2021/12/05 16:38:02;;;;;;;8.10;6.33;;;4.50;99.90;;;;;;5011742;28;20447;-77
2021/12/05 16:40:53;;;;;;;10.10;7.10;;;4.60;99.90;;;;;;5011190;28;20485;-76
2021/12/05 16:43:20;;;;;;;10.23;6.30;;;4.60;99.90;;;;;;5011993;28;20876;-76
2021/12/05 16:45:47;;;;;;;6.00;5.40;;;4.60;99.90;;;;;;5005339;28;20451;-76
2021/12/05 16:48:18;;;;;;;10.07;5.97;;;4.50;99.90;;;;;;4992224;28;20455;-78
2021/12/05 16:50:45;;;;;;;7.60;5.20;;;4.50;99.90;;;;;;5010237;28;20450;-79
2021/12/05 16:53:14;;;;;;;12.70;5.50;;;4.40;99.90;;;;;;5014060;28;20914;-78
2021/12/05 16:55:56;;;;;;;6.40;4.93;;;4.40;99.90;;;;;;5019254;28;20462;-78
2021/12/05 16:58:22;;;;;;;6.20;4.77;;;4.30;99.90;;;;;;5011567;28;21020;-78
2021/12/05 17:00:52;;;;;;;6.90;5.13;;;4.30;99.90;;;;;;5013466;28;21024;-77
2021/12/05 17:03:23;;;;;;;7.37;5.17;;;4.20;99.90;;;;;;5012179;28;20474;-77
2021/12/05 17:05:52;;;;;;;5.70;4.47;;;4.20;99.90;;;;;;5013264;28;20480;-79
2021/12/05 17:08:22;;;;;;;6.00;4.53;;;4.10;99.90;;;;;;5010662;28;20549;-75
2021/12/05 17:10:54;;;;;;;8.20;4.70;;;4.10;99.90;;;;;;5019158;28;20458;-77
2021/12/05 17:13:24;;;;;;;6.70;4.67;;;4.10;99.90;;;;;;5022242;28;20477;-76